Time;durP1;ratioP1;P1;durP2;ratioP2;P2;SDS_P1;SDS_P2;PMS_P1;PMS_P2;Temp;Humidity;BMP_temperature;BMP_pressure;BME280_temperature;BME280_humidity;BME280_pressure;Samples;Min_cycle;Max_cycle;Signal;HPM_P1;HPM_P2
2022/12/30 05:02:39;;;;;;;4.00;2.50;;;6.30;99.90;;;;;;4889710;29;20502;-72
2022/12/30 05:05:06;;;;;;;6.80;3.93;;;6.30;99.90;;;;;;4891790;29;20455;-73
2022/12/30 05:07:34;;;;;;;6.30;4.47;;;6.30;99.90;;;;;;4890311;29;20809;-73
2022/12/30 05:10:00;;;;;;;3.40;2.67;;;6.30;99.90;;;;;;4891512;29;20456;-73
2022/12/30 05:12:27;;;;;;;3.00;2.07;;;6.20;99.90;;;;;;4891593;29;20653;-73
2022/12/30 05:14:54;;;;;;;3.07;1.80;;;6.20;99.90;;;;;;4891579;29;20471;-73
2022/12/30 05:17:21;;;;;;;1.73;1.63;;;6.20;99.90;;;;;;4891021;29;20471;-73
2022/12/30 05:19:49;;;;;;;1.77;1.67;;;6.20;99.90;;;;;;4891701;29;20504;-73
2022/12/30 05:22:15;;;;;;;1.87;1.77;;;6.10;99.90;;;;;;4891412;29;20483;-73
2022/12/30 05:27:27;;;;;;;13.13;7.27;;;6.10;99.90;;;;;;4890474;29;20516;-73
2022/12/30 05:29:53;;;;;;;11.60;6.60;;;6.10;99.90;;;;;;4891483;29;20452;-73
2022/12/30 05:32:20;;;;;;;18.17;10.00;;;6.00;99.90;;;;;;4891004;29;20484;-73
2022/12/30 05:34:48;;;;;;;14.70;7.40;;;6.00;99.90;;;;;;4891164;29;20471;-73
2022/12/30 05:37:15;;;;;;;12.83;7.00;;;5.90;99.90;;;;;;4890541;29;20478;-73
2022/12/30 05:39:42;;;;;;;9.80;5.90;;;5.80;99.90;;;;;;4891245;29;20526;-73
2022/12/30 05:42:09;;;;;;;6.97;5.40;;;5.80;99.90;;;;;;4890700;29;20503;-73
2022/12/30 05:44:35;;;;;;;8.83;5.50;;;5.80;99.90;;;;;;4891077;29;20959;-73
2022/12/30 05:47:02;;;;;;;11.70;6.10;;;5.70;99.90;;;;;;4890492;29;20467;-73
2022/12/30 05:49:29;;;;;;;11.20;6.10;;;5.70;99.90;;;;;;4890986;29;20448;-73
2022/12/30 05:51:57;;;;;;;11.90;6.10;;;5.60;99.90;;;;;;4890445;29;20480;-73
2022/12/30 05:54:24;;;;;;;11.00;6.20;;;5.60;99.90;;;;;;4890712;29;20464;-73
2022/12/30 05:56:51;;;;;;;13.50;6.80;;;5.60;99.90;;;;;;4890377;29;20462;-73
2022/12/30 05:59:17;;;;;;;9.80;5.53;;;5.50;99.90;;;;;;4890668;29;20495;-73
2022/12/30 06:01:44;;;;;;;8.17;4.30;;;5.50;99.90;;;;;;4889348;29;20772;-73
2022/12/30 06:04:11;;;;;;;8.23;5.10;;;5.50;99.90;;;;;;4890755;29;20460;-73
2022/12/30 06:06:38;;;;;;;10.43;5.23;;;5.50;99.90;;;;;;4889926;29;20460;-73
2022/12/30 06:09:06;;;;;;;6.17;4.17;;;5.50;99.90;;;;;;4889987;29;20953;-73
2022/12/30 06:11:32;;;;;;;4.73;4.23;;;5.40;99.90;;;;;;4890447;29;20480;-73
2022/12/30 06:13:59;;;;;;;5.73;3.87;;;5.40;99.90;;;;;;4890688;29;20949;-73
2022/12/30 06:16:26;;;;;;;4.03;3.23;;;5.40;99.90;;;;;;4889774;29;20471;-72
2022/12/30 06:18:53;;;;;;;5.17;4.07;;;5.30;99.90;;;;;;4889612;29;20725;-73
2022/12/30 06:21:19;;;;;;;4.27;3.67;;;5.30;99.90;;;;;;4890478;29;20821;-73
2022/12/30 06:23:46;;;;;;;3.13;2.80;;;5.20;99.90;;;;;;4890145;29;20460;-73
2022/12/30 06:26:15;;;;;;;5.47;4.10;;;5.30;99.90;;;;;;4889923;29;20464;-73
2022/12/30 06:28:41;;;;;;;9.40;6.20;;;5.20;99.90;;;;;;4890436;29;20471;-72
2022/12/30 06:31:08;;;;;;;14.77;8.03;;;5.20;99.90;;;;;;4890288;29;20866;-73
2022/12/30 06:33:36;;;;;;;16.73;9.17;;;5.20;99.90;;;;;;4890120;29;20471;-73
2022/12/30 06:36:03;;;;;;;10.20;7.07;;;5.10;99.90;;;;;;4889933;29;20470;-73
2022/12/30 06:38:30;;;;;;;17.53;9.70;;;5.00;99.90;;;;;;4890283;29;20467;-73
2022/12/30 06:40:57;;;;;;;15.93;9.00;;;5.00;99.90;;;;;;4890380;29;20822;-73
2022/12/30 06:43:25;;;;;;;17.90;9.77;;;5.00;99.90;;;;;;4890247;29;20474;-73
2022/12/30 06:45:52;;;;;;;12.40;8.60;;;5.00;99.90;;;;;;4889822;29;20460;-73
2022/12/30 06:48:19;;;;;;;18.30;9.40;;;5.00;99.90;;;;;;4889960;29;20480;-73
2022/12/30 06:50:45;;;;;;;12.40;8.63;;;4.90;99.90;;;;;;4889831;29;20476;-73
2022/12/30 06:53:12;;;;;;;10.07;6.80;;;4.90;99.90;;;;;;4890128;29;20456;-73
2022/12/30 06:55:39;;;;;;;9.17;7.13;;;4.80;99.90;;;;;;4890384;29;20496;-72
2022/12/30 06:58:06;;;;;;;8.73;7.07;;;4.80;99.90;;;;;;4889641;29;20460;-73
2022/12/30 07:00:34;;;;;;;9.53;6.73;;;4.80;99.90;;;;;;4889174;29;20519;-73
2022/12/30 07:03:01;;;;;;;7.50;5.67;;;4.70;99.90;;;;;;4889805;29;20824;-73
2022/12/30 07:05:28;;;;;;;10.97;7.47;;;4.70;99.90;;;;;;4889938;29;20466;-73
2022/12/30 07:07:55;;;;;;;7.70;5.87;;;4.60;99.90;;;;;;4889607;29;20467;-73
2022/12/30 07:10:21;;;;;;;5.67;5.10;;;4.60;99.90;;;;;;4890183;29;20626;-73
2022/12/30 07:12:48;;;;;;;5.40;4.40;;;4.60;99.90;;;;;;4889764;29;20460;-73
2022/12/30 07:15:15;;;;;;;8.00;5.60;;;4.60;99.90;;;;;;4889975;29;20460;-71
2022/12/30 07:17:43;;;;;;;4.90;4.10;;;4.50;99.90;;;;;;4889499;29;20487;-71
2022/12/30 07:20:12;;;;;;;7.00;5.57;;;4.50;99.90;;;;;;4889877;29;20512;-71
2022/12/30 07:22:39;;;;;;;6.37;5.47;;;4.40;99.90;;;;;;4889836;29;20479;-71
2022/12/30 07:25:06;;;;;;;9.03;6.43;;;4.40;99.90;;;;;;4889925;29;20460;-71
2022/12/30 07:27:33;;;;;;;9.03;6.90;;;4.40;99.90;;;;;;4889261;29;20471;-71
2022/12/30 07:30:00;;;;;;;8.10;6.60;;;4.40;99.90;;;;;;4889845;29;20503;-71
2022/12/30 07:32:27;;;;;;;9.20;6.20;;;4.30;99.90;;;;;;4892961;29;20852;-71
2022/12/30 07:34:55;;;;;;;11.13;6.10;;;4.30;99.90;;;;;;4893253;29;20468;-72
2022/12/30 07:37:21;;;;;;;16.20;7.00;;;4.30;99.90;;;;;;4892581;29;20987;-71
2022/12/30 07:39:48;;;;;;;23.73;11.57;;;4.30;99.90;;;;;;4893151;29;20499;-72
2022/12/30 07:42:15;;;;;;;27.33;11.80;;;4.30;99.90;;;;;;4893160;29;20487;-72
2022/12/30 07:44:42;;;;;;;15.60;7.97;;;4.20;99.90;;;;;;4893191;29;20457;-71
2022/12/30 07:47:09;;;;;;;21.70;9.20;;;4.20;99.90;;;;;;4892277;29;20464;-71
2022/12/30 07:49:35;;;;;;;21.70;8.93;;;4.20;99.90;;;;;;4892881;29;20459;-71
2022/12/30 07:52:05;;;;;;;19.07;9.03;;;4.10;99.90;;;;;;4893017;29;20476;-71
2022/12/30 07:54:32;;;;;;;15.00;8.60;;;4.10;99.90;;;;;;4892951;29;20448;-71
2022/12/30 07:56:59;;;;;;;15.57;8.23;;;4.00;99.90;;;;;;4892399;29;20828;-71
2022/12/30 07:59:26;;;;;;;11.87;7.67;;;4.10;99.90;;;;;;4892829;29;20510;-71
2022/12/30 08:01:52;;;;;;;14.07;8.60;;;4.10;99.90;;;;;;4892550;29;20487;-71
2022/12/30 08:04:19;;;;;;;12.00;6.90;;;4.10;99.90;;;;;;4892578;29;20486;-71
2022/12/30 08:06:46;;;;;;;9.40;6.40;;;4.10;99.90;;;;;;4892259;29;20471;-71
2022/12/30 08:09:14;;;;;;;17.00;6.97;;;4.10;99.90;;;;;;4892484;29;21227;-71
2022/12/30 08:11:41;;;;;;;6.40;4.43;;;4.10;99.90;;;;;;4892857;29;20476;-71
2022/12/30 08:14:08;;;;;;;5.03;4.10;;;4.10;99.90;;;;;;4892322;29;20467;-71
2022/12/30 08:16:35;;;;;;;5.20;4.57;;;4.10;99.90;;;;;;4891875;29;20464;-71
2022/12/30 08:19:01;;;;;;;7.30;4.83;;;4.10;99.90;;;;;;4892569;29;20464;-71
2022/12/30 08:21:28;;;;;;;11.90;5.77;;;4.00;99.90;;;;;;4892582;29;20483;-71
2022/12/30 08:23:55;;;;;;;11.30;5.70;;;4.10;99.90;;;;;;4892247;29;20456;-71
2022/12/30 08:26:24;;;;;;;13.77;5.83;;;4.10;99.90;;;;;;4891547;29;20464;-71
2022/12/30 08:28:51;;;;;;;8.23;4.70;;;4.10;99.90;;;;;;4891998;29;20832;-71
2022/12/30 08:31:20;;;;;;;9.30;5.00;;;4.10;99.90;;;;;;4892559;29;20483;-71
2022/12/30 08:33:46;;;;;;;7.57;5.10;;;4.10;99.90;;;;;;4892528;29;20468;-71
2022/12/30 08:36:15;;;;;;;10.50;5.30;;;4.20;99.90;;;;;;4891383;29;20464;-71
2022/12/30 08:38:44;;;;;;;9.97;4.23;;;4.20;99.90;;;;;;4892111;29;20456;-71
2022/12/30 08:41:13;;;;;;;13.40;7.17;;;4.20;99.90;;;;;;4891424;29;20515;-71
2022/12/30 08:43:41;;;;;;;12.00;7.83;;;4.20;99.90;;;;;;4891406;29;20467;-71
2022/12/30 08:46:08;;;;;;;12.10;8.03;;;4.20;99.90;;;;;;4891329;29;20462;-71
2022/12/30 08:48:35;;;;;;;12.93;7.43;;;4.30;99.90;;;;;;4891854;29;20969;-71
2022/12/30 08:51:02;;;;;;;11.50;6.97;;;4.40;99.90;;;;;;4891986;29;20479;-71
2022/12/30 08:53:29;;;;;;;13.40;8.70;;;4.40;99.90;;;;;;4891730;29;20464;-71
2022/12/30 08:56:00;;;;;;;13.67;6.30;;;4.40;99.90;;;;;;4891130;29;20470;-71
2022/12/30 08:58:28;;;;;;;10.30;6.30;;;4.40;99.90;;;;;;4891903;29;20467;-71
2022/12/30 09:00:56;;;;;;;9.53;7.20;;;4.40;99.90;;;;;;4891921;29;20503;-71
2022/12/30 09:03:22;;;;;;;15.23;7.77;;;4.50;99.90;;;;;;4891785;29;20455;-71
2022/12/30 09:05:52;;;;;;;15.23;7.10;;;4.60;99.90;;;;;;4891342;29;20456;-71
2022/12/30 09:08:18;;;;;;;13.07;6.70;;;4.70;99.90;;;;;;4891034;29;20956;-71
2022/12/30 09:10:46;;;;;;;9.23;6.03;;;4.70;99.90;;;;;;4891425;29;20483;-71
2022/12/30 09:13:12;;;;;;;7.50;6.00;;;4.70;99.90;;;;;;4892031;29;20462;-71
2022/12/30 09:15:39;;;;;;;7.50;6.00;;;4.90;99.90;;;;;;4891413;29;20468;-71
2022/12/30 09:18:07;;;;;;;12.77;7.90;;;5.00;99.90;;;;;;4890826;29;20772;-71
2022/12/30 09:20:34;;;;;;;13.20;8.90;;;5.20;99.90;;;;;;4891130;29;21048;-71
2022/12/30 09:23:01;;;;;;;10.30;6.87;;;5.30;99.90;;;;;;4891614;29;20837;-71
2022/12/30 09:25:28;;;;;;;6.30;5.40;;;5.40;99.90;;;;;;4891227;29;20853;-71
2022/12/30 09:27:54;;;;;;;5.00;4.13;;;5.60;99.90;;;;;;4890977;29;20487;-71
2022/12/30 09:30:21;;;;;;;3.43;3.07;;;5.70;99.90;;;;;;4891235;29;20460;-71
2022/12/30 09:32:48;;;;;;;4.43;3.30;;;5.80;99.90;;;;;;4891045;29;20475;-71
2022/12/30 09:35:16;;;;;;;6.00;3.50;;;5.90;99.90;;;;;;4891037;29;20464;-71
2022/12/30 09:37:43;;;;;;;6.30;3.77;;;6.10;99.90;;;;;;4890523;29;20463;-71
2022/12/30 09:40:14;;;;;;;4.83;4.10;;;6.30;99.90;;;;;;4891098;29;20873;-71
2022/12/30 09:45:30;;;;;;;5.97;4.87;;;6.60;99.90;;;;;;4890951;29;20531;-71
2022/12/30 09:48:00;;;;;;;12.30;5.10;;;6.80;99.90;;;;;;4890047;29;20474;-71
2022/12/30 09:50:38;;;;;;;4.30;3.20;;;7.00;99.90;;;;;;4890972;29;20464;-71
2022/12/30 09:53:13;;;;;;;4.87;2.70;;;7.10;99.90;;;;;;4890596;29;20918;-71
2022/12/30 09:55:49;;;;;;;3.03;2.63;;;7.10;99.90;;;;;;4890821;29;20952;-71
2022/12/30 09:58:23;;;;;;;2.67;2.30;;;7.20;99.90;;;;;;4890205;29;20459;-71
2022/12/30 10:00:53;;;;;;;3.10;2.23;;;7.40;99.90;;;;;;4890655;29;20516;-72
2022/12/30 10:03:24;;;;;;;2.60;2.40;;;7.50;99.90;;;;;;4890477;29;20464;-71
2022/12/30 10:06:06;;;;;;;4.30;2.70;;;7.60;99.90;;;;;;4890027;29;20464;-71
2022/12/30 10:08:46;;;;;;;1.90;1.80;;;7.70;99.90;;;;;;4890675;29;20813;-71
2022/12/30 10:11:26;;;;;;;2.37;2.17;;;8.00;99.90;;;;;;4891004;29;20480;-71
2022/12/30 10:24:16;;;;;;;2.40;1.40;;;8.90;99.90;;;;;;4889945;29;20548;-72
2022/12/30 10:26:47;;;;;;;1.90;1.27;;;9.20;99.90;;;;;;4889924;29;20448;-75
2022/12/30 10:29:18;;;;;;;1.60;1.30;;;9.30;99.90;;;;;;4890434;29;20464;-75
2022/12/30 10:31:46;;;;;;;5.73;1.50;;;9.30;99.90;;;;;;4890351;29;20539;-75
2022/12/30 10:34:15;;;;;;;5.10;1.50;;;9.40;99.90;;;;;;4890399;29;20464;-75
2022/12/30 10:36:49;;;;;;;2.50;2.00;;;9.70;99.90;;;;;;4889643;29;20486;-75
2022/12/30 10:39:19;;;;;;;3.90;1.43;;;9.90;99.90;;;;;;4890291;29;20464;-76
2022/12/30 10:42:03;;;;;;;4.63;1.30;;;10.00;99.90;;;;;;4890113;29;20507;-76
2022/12/30 10:44:36;;;;;;;2.20;1.57;;;10.20;99.90;;;;;;4890120;29;20944;-76
2022/12/30 10:47:33;;;;;;;1.70;1.30;;;10.40;99.90;;;;;;4890007;29;20455;-76
2022/12/30 10:50:14;;;;;;;1.50;1.40;;;10.50;99.90;;;;;;4890156;29;20459;-76
2022/12/30 10:52:40;;;;;;;1.43;1.33;;;10.60;99.90;;;;;;4889992;29;20501;-72
2022/12/30 10:55:20;;;;;;;1.37;1.10;;;10.80;99.90;;;;;;4890197;29;20456;-73
2022/12/30 10:57:49;;;;;;;2.27;1.47;;;10.90;99.90;;;;;;4889865;29;20444;-73
2022/12/30 11:00:17;;;;;;;1.43;1.13;;;10.90;99.90;;;;;;4889950;29;20527;-73
2022/12/30 11:02:54;;;;;;;1.47;1.30;;;11.10;99.90;;;;;;4889755;29;20471;-73
2022/12/30 11:05:34;;;;;;;1.37;1.10;;;11.20;99.90;;;;;;4890954;29;20669;-73
2022/12/30 11:08:03;;;;;;;2.10;1.10;;;11.30;99.90;;;;;;4893057;29;20944;-73
2022/12/30 11:10:31;;;;;;;2.23;1.30;;;11.40;99.90;;;;;;4893657;29;20478;-73
2022/12/30 11:15:57;;;;;;;1.20;1.10;;;11.60;99.90;;;;;;4893266;29;20428;-73
2022/12/30 11:18:28;;;;;;;1.30;1.20;;;11.80;99.90;;;;;;4893449;29;20828;-73
2022/12/30 11:20:56;;;;;;;1.63;1.30;;;12.00;99.90;;;;;;4893494;29;20511;-74
2022/12/30 11:23:27;;;;;;;2.20;1.30;;;12.00;99.90;;;;;;4893699;29;20510;-74
2022/12/30 11:25:56;;;;;;;3.03;1.90;;;12.10;99.90;;;;;;4892931;29;20520;-73
2022/12/30 11:28:25;;;;;;;2.47;1.77;;;12.20;99.90;;;;;;4893403;29;20949;-74
2022/12/30 11:31:03;;;;;;;3.37;1.20;;;12.20;99.90;;;;;;4893371;29;20509;-74
2022/12/30 11:33:34;;;;;;;2.83;1.43;;;12.40;99.90;;;;;;4893667;29;20497;-75
2022/12/30 11:36:13;;;;;;;1.67;1.40;;;12.40;99.90;;;;;;4892789;29;20471;-76
2022/12/30 11:38:41;;;;;;;1.40;1.30;;;12.50;99.90;;;;;;4893313;29;20459;-76
2022/12/30 11:41:23;;;;;;;1.97;1.40;;;12.60;99.90;;;;;;4893195;29;20512;-74
2022/12/30 11:43:51;;;;;;;1.87;1.20;;;12.60;99.90;;;;;;4893082;29;20745;-75
2022/12/30 11:46:20;;;;;;;1.60;1.33;;;12.70;99.90;;;;;;4892720;29;20780;-74
2022/12/30 11:48:51;;;;;;;1.27;1.17;;;12.80;99.90;;;;;;4892900;29;20458;-72
2022/12/30 11:51:21;;;;;;;2.70;1.60;;;13.00;99.90;;;;;;4892807;29;20839;-71
2022/12/30 11:53:49;;;;;;;1.40;1.10;;;13.10;99.90;;;;;;4892779;29;20948;-75
2022/12/30 11:56:23;;;;;;;3.80;1.50;;;13.30;99.90;;;;;;4892401;29;20455;-74
2022/12/30 11:58:50;;;;;;;1.90;1.60;;;13.40;99.90;;;;;;4893001;29;20448;-72
2022/12/30 12:01:17;;;;;;;2.73;1.30;;;13.50;99.90;;;;;;4892182;29;20578;-72
2022/12/30 12:03:49;;;;;;;1.93;1.07;;;13.50;99.90;;;;;;4892861;29;20456;-72
2022/12/30 12:06:16;;;;;;;1.73;1.23;;;13.50;99.90;;;;;;4891862;29;20989;-72
2022/12/30 12:08:50;;;;;;;1.67;1.13;;;13.40;99.90;;;;;;4892902;29;20455;-72
2022/12/30 12:11:19;;;;;;;2.50;1.30;;;13.40;99.90;;;;;;4892426;29;20487;-72
2022/12/30 12:13:58;;;;;;;2.70;1.30;;;13.30;99.90;;;;;;4892325;29;20455;-72
2022/12/30 12:16:38;;;;;;;2.00;1.60;;;13.30;99.90;;;;;;4891597;29;20462;-72
2022/12/30 12:19:19;;;;;;;2.53;1.50;;;13.30;99.90;;;;;;4892496;29;20433;-72
2022/12/30 12:21:50;;;;;;;3.70;1.20;;;13.30;99.90;;;;;;4892551;29;20515;-72
2022/12/30 12:24:23;;;;;;;2.10;1.63;;;13.30;99.90;;;;;;4892611;29;20447;-72
2022/12/30 12:26:57;;;;;;;3.10;2.33;;;13.20;99.90;;;;;;4891831;29;20460;-72
2022/12/30 12:29:26;;;;;;;9.60;8.07;;;13.20;99.90;;;;;;4892176;29;20462;-72
2022/12/30 12:32:19;;;;;;;3.20;2.60;;;13.20;99.90;;;;;;4892028;29;20984;-72
2022/12/30 12:34:57;;;;;;;1.60;1.40;;;13.20;99.90;;;;;;4892103;29;20453;-72
2022/12/30 12:37:35;;;;;;;2.30;1.27;;;13.10;99.90;;;;;;4892273;29;20444;-72
2022/12/30 12:40:33;;;;;;;1.63;1.23;;;13.10;99.90;;;;;;4892439;29;20444;-72
2022/12/30 12:43:11;;;;;;;1.50;1.30;;;13.00;99.90;;;;;;4891830;29;20444;-72
2022/12/30 12:46:14;;;;;;;2.60;1.03;;;12.90;99.90;;;;;;4892247;29;20448;-72
2022/12/30 12:49:08;;;;;;;1.30;1.20;;;12.90;99.90;;;;;;4833688;29;20571;-72
2022/12/30 12:51:50;;;;;;;1.30;1.20;;;12.90;99.90;;;;;;4888501;29;20495;-72
2022/12/30 12:54:46;;;;;;;3.83;1.90;;;12.90;99.90;;;;;;4891894;29;20463;-72
2022/12/30 12:57:23;;;;;;;2.87;1.50;;;12.80;99.90;;;;;;4840355;29;20753;-72
2022/12/30 13:00:08;;;;;;;2.90;1.50;;;12.70;99.90;;;;;;4892337;29;20455;-72
2022/12/30 13:03:11;;;;;;;1.83;1.30;;;12.60;99.90;;;;;;4891487;29;20511;-72
2022/12/30 13:05:47;;;;;;;2.73;1.80;;;12.60;99.90;;;;;;4881444;29;20813;-72
2022/12/30 13:08:25;;;;;;;1.50;1.40;;;12.50;99.90;;;;;;4891422;29;20452;-72
2022/12/30 13:11:01;;;;;;;2.10;1.07;;;12.50;99.90;;;;;;4891742;29;20566;-72
2022/12/30 13:13:33;;;;;;;1.37;1.10;;;12.40;99.90;;;;;;4891820;29;20450;-72
2022/12/30 13:16:05;;;;;;;1.90;1.20;;;12.40;99.90;;;;;;4891269;29;20471;-72
2022/12/30 13:18:37;;;;;;;1.30;0.80;;;12.40;99.90;;;;;;4891829;29;20464;-72
2022/12/30 13:21:08;;;;;;;1.03;0.93;;;12.30;99.90;;;;;;4891439;29;20878;-72
2022/12/30 13:23:46;;;;;;;2.30;1.53;;;12.20;99.90;;;;;;4891246;29;20463;-72
2022/12/30 13:26:12;;;;;;;2.50;1.47;;;12.10;99.90;;;;;;4890590;29;20984;-72
2022/12/30 13:28:41;;;;;;;3.23;1.27;;;12.10;99.90;;;;;;4891111;29;20937;-72
2022/12/30 13:31:21;;;;;;;1.50;1.20;;;12.00;99.90;;;;;;4891385;29;20814;-72
2022/12/30 13:33:58;;;;;;;0.97;0.97;;;12.00;99.90;;;;;;4891404;29;20445;-72
2022/12/30 13:36:31;;;;;;;1.40;1.20;;;11.90;99.90;;;;;;4890838;29;20455;-72
2022/12/30 13:39:12;;;;;;;1.47;1.33;;;11.80;99.90;;;;;;4891007;29;20464;-72
2022/12/30 13:41:56;;;;;;;1.57;1.20;;;11.80;99.90;;;;;;4890847;29;20500;-72
2022/12/30 13:44:26;;;;;;;1.50;1.00;;;11.80;99.90;;;;;;4891088;29;20460;-72
2022/12/30 13:46:54;;;;;;;1.30;1.20;;;11.80;99.90;;;;;;4890705;29;20830;-72
2022/12/30 13:49:27;;;;;;;2.60;1.80;;;11.80;99.90;;;;;;4891039;29;20776;-72
2022/12/30 13:51:57;;;;;;;5.10;2.30;;;11.70;99.90;;;;;;4891001;29;20943;-72
2022/12/30 13:54:25;;;;;;;4.63;2.30;;;11.70;99.90;;;;;;4890995;29;20589;-72
2022/12/30 13:56:53;;;;;;;4.40;2.33;;;11.70;99.90;;;;;;4890532;29;20475;-72
2022/12/30 13:59:27;;;;;;;4.07;2.30;;;11.70;99.90;;;;;;4890931;29;20561;-72
2022/12/30 14:02:27;;;;;;;6.83;3.20;;;11.60;99.90;;;;;;4889924;29;21034;-72
2022/12/30 14:04:56;;;;;;;2.10;1.80;;;11.70;99.90;;;;;;4890293;29;20460;-72
2022/12/30 14:07:49;;;;;;;3.30;2.03;;;11.70;99.90;;;;;;4889743;29;20460;-72
2022/12/30 14:10:40;;;;;;;2.07;1.73;;;11.60;99.90;;;;;;4876847;29;20532;-72
2022/12/30 14:13:15;;;;;;;1.60;1.30;;;11.60;99.90;;;;;;4890562;29;20444;-72
2022/12/30 14:15:56;;;;;;;1.60;1.50;;;11.60;99.90;;;;;;4890548;29;20803;-72
2022/12/30 14:18:33;;;;;;;2.80;1.87;;;11.60;99.90;;;;;;4890614;29;20467;-72
2022/12/30 14:21:03;;;;;;;4.23;2.83;;;11.60;99.90;;;;;;4890465;29;20495;-72
2022/12/30 14:23:46;;;;;;;3.40;2.40;;;11.60;99.90;;;;;;4890661;29;20455;-72
2022/12/30 14:26:39;;;;;;;2.73;1.73;;;11.60;99.90;;;;;;4890067;29;20462;-72
2022/12/30 14:29:30;;;;;;;3.93;1.40;;;11.60;99.90;;;;;;4890332;29;20495;-72
2022/12/30 14:32:00;;;;;;;2.30;1.10;;;11.50;99.90;;;;;;4890689;29;20483;-72
2022/12/30 14:34:33;;;;;;;4.43;1.53;;;11.50;99.90;;;;;;4890326;29;20923;-72
2022/12/30 14:37:05;;;;;;;2.20;1.70;;;11.50;99.90;;;;;;4889888;29;20516;-72
2022/12/30 14:39:33;;;;;;;2.23;1.60;;;11.40;99.90;;;;;;4890069;29;20459;-72
2022/12/30 14:42:03;;;;;;;3.60;1.47;;;11.40;99.90;;;;;;4889905;29;20511;-72
2022/12/30 14:44:33;;;;;;;2.83;1.60;;;11.30;99.90;;;;;;4890179;29;20468;-72
2022/12/30 14:47:03;;;;;;;2.90;1.87;;;11.40;99.90;;;;;;4889665;29;20486;-72
2022/12/30 14:49:34;;;;;;;3.17;1.50;;;11.30;99.90;;;;;;4890089;29;20464;-72
2022/12/30 14:52:15;;;;;;;1.87;1.47;;;11.30;99.90;;;;;;4890217;29;20593;-72
2022/12/30 14:54:45;;;;;;;3.23;1.90;;;11.20;99.90;;;;;;4890510;29;20460;-72
2022/12/30 14:57:19;;;;;;;1.93;1.60;;;11.20;99.90;;;;;;4889504;29;20448;-72
2022/12/30 14:59:54;;;;;;;2.67;2.27;;;11.20;99.90;;;;;;4890018;29;20459;-72
2022/12/30 15:02:23;;;;;;;2.27;1.63;;;11.20;99.90;;;;;;4889865;29;20652;-72
2022/12/30 15:04:53;;;;;;;2.37;1.40;;;11.10;99.90;;;;;;4889798;29;20556;-71
2022/12/30 15:07:24;;;;;;;2.23;2.03;;;11.10;99.90;;;;;;4889474;29;20929;-72
2022/12/30 15:09:52;;;;;;;3.50;3.20;;;11.10;99.90;;;;;;4890004;29;20806;-72
2022/12/30 15:12:22;;;;;;;4.43;3.30;;;11.00;99.90;;;;;;4889878;29;20474;-72
2022/12/30 15:14:54;;;;;;;5.43;2.70;;;11.00;99.90;;;;;;4889903;29;20813;-72
2022/12/30 15:17:32;;;;;;;4.60;3.17;;;11.00;99.90;;;;;;4889005;29;20467;-72
2022/12/30 15:20:00;;;;;;;4.70;2.90;;;11.00;99.90;;;;;;4888988;29;20471;-72
2022/12/30 15:22:30;;;;;;;7.33;4.50;;;10.90;99.90;;;;;;4889256;29;20511;-72
2022/12/30 15:24:57;;;;;;;20.23;12.47;;;10.90;99.90;;;;;;4890403;29;20452;-72
2022/12/30 15:27:26;;;;;;;12.17;6.20;;;10.90;99.90;;;;;;4889186;29;20464;-72
2022/12/30 15:29:54;;;;;;;7.10;4.30;;;10.90;99.90;;;;;;4894334;29;20945;-72
2022/12/30 15:32:30;;;;;;;5.03;3.30;;;10.80;99.90;;;;;;4903636;29;20487;-72
2022/12/30 15:35:06;;;;;;;10.30;5.13;;;10.80;99.90;;;;;;4907674;29;20446;-72
2022/12/30 15:37:35;;;;;;;6.70;4.77;;;10.70;99.90;;;;;;4908332;29;20468;-72
2022/12/30 15:40:06;;;;;;;6.07;3.83;;;10.70;99.90;;;;;;4908235;29;20462;-72
2022/12/30 15:42:39;;;;;;;3.10;2.80;;;10.60;99.90;;;;;;4908903;29;20503;-72
2022/12/30 15:45:21;;;;;;;3.77;2.33;;;10.60;99.90;;;;;;4908830;29;20450;-72
2022/12/30 15:47:53;;;;;;;3.13;2.30;;;10.50;99.90;;;;;;4908383;29;20466;-72
2022/12/30 15:50:32;;;;;;;2.30;2.10;;;10.50;99.90;;;;;;4908644;29;20455;-72
2022/12/30 15:53:02;;;;;;;2.20;1.97;;;10.40;99.90;;;;;;4902770;29;20814;-72
2022/12/30 15:55:32;;;;;;;4.13;1.93;;;10.40;99.90;;;;;;4882915;29;20455;-72
2022/12/30 15:58:01;;;;;;;3.73;2.43;;;10.40;99.90;;;;;;4882360;29;20447;-72
2022/12/30 16:00:28;;;;;;;2.80;1.90;;;10.30;99.90;;;;;;4880479;29;20517;-72
2022/12/30 16:02:56;;;;;;;3.27;2.40;;;10.30;99.90;;;;;;4874339;29;20500;-72
2022/12/30 16:05:26;;;;;;;3.13;2.50;;;10.30;99.90;;;;;;4874429;29;20465;-72
2022/12/30 16:07:53;;;;;;;5.37;3.63;;;10.30;99.90;;;;;;4873668;29;20841;-74
2022/12/30 16:10:27;;;;;;;7.50;4.20;;;10.30;99.90;;;;;;4874047;29;21392;-74
2022/12/30 16:12:55;;;;;;;5.40;3.33;;;10.30;99.90;;;;;;4874350;29;20461;-74
2022/12/30 16:15:33;;;;;;;5.27;4.10;;;10.30;99.90;;;;;;4873955;29;20468;-74
2022/12/30 16:18:06;;;;;;;6.23;4.13;;;10.30;99.90;;;;;;4873567;29;20463;-74
2022/12/30 16:20:42;;;;;;;4.13;3.37;;;10.30;99.90;;;;;;4874231;29;20515;-74
2022/12/30 16:23:15;;;;;;;4.83;3.40;;;10.30;99.90;;;;;;4874093;29;20852;-74
2022/12/30 16:25:48;;;;;;;3.23;2.40;;;10.30;99.90;;;;;;4874134;29;20452;-74
2022/12/30 16:28:32;;;;;;;3.50;2.30;;;10.20;99.90;;;;;;4873789;29;20472;-74
2022/12/30 16:31:00;;;;;;;3.60;2.30;;;10.20;99.90;;;;;;4874384;29;20489;-74
2022/12/30 16:33:27;;;;;;;2.50;1.83;;;10.20;99.90;;;;;;4873958;29;21214;-74
2022/12/30 16:35:57;;;;;;;3.50;3.00;;;10.20;99.90;;;;;;4873471;29;20467;-74
2022/12/30 16:38:27;;;;;;;3.23;2.93;;;10.20;99.90;;;;;;4873750;29;20831;-73
2022/12/30 16:40:56;;;;;;;5.10;3.10;;;10.10;99.90;;;;;;4873151;29;20502;-73
2022/12/30 16:43:23;;;;;;;8.87;4.27;;;10.20;99.90;;;;;;4873840;29;20501;-74
2022/12/30 16:45:50;;;;;;;7.13;4.90;;;10.20;99.90;;;;;;4873621;29;20469;-74
2022/12/30 16:48:17;;;;;;;6.80;4.60;;;10.20;99.90;;;;;;4873679;29;20502;-73
2022/12/30 16:50:45;;;;;;;8.60;6.43;;;10.20;99.90;;;;;;4873622;29;20485;-73
2022/12/30 16:53:19;;;;;;;4.00;3.47;;;10.10;99.90;;;;;;4873295;29;20463;-74
2022/12/30 16:55:45;;;;;;;4.60;3.07;;;10.10;99.90;;;;;;4873473;29;20452;-74
2022/12/30 16:58:14;;;;;;;5.90;4.70;;;10.10;99.90;;;;;;4872522;29;21052;-73
2022/12/30 17:00:42;;;;;;;9.43;6.43;;;10.10;99.90;;;;;;4873114;29;20511;-74
2022/12/30 17:03:12;;;;;;;11.20;6.70;;;10.10;99.90;;;;;;4872254;29;20501;-73
2022/12/30 17:05:39;;;;;;;2.70;2.47;;;10.10;99.90;;;;;;4873379;29;20453;-73
2022/12/30 17:08:06;;;;;;;5.10;4.10;;;10.10;99.90;;;;;;4872870;29;20464;-74
2022/12/30 17:13:32;;;;;;;5.90;3.03;;;10.10;99.90;;;;;;4833703;29;20944;-74
2022/12/30 17:16:00;;;;;;;3.50;2.93;;;10.00;99.90;;;;;;4863410;29;20469;-73
2022/12/30 17:18:27;;;;;;;1.93;1.83;;;10.00;99.90;;;;;;4873018;29;20464;-73
2022/12/30 17:20:58;;;;;;;2.67;2.20;;;10.00;99.90;;;;;;4873004;29;20484;-74
2022/12/30 17:23:31;;;;;;;3.10;2.20;;;10.00;99.90;;;;;;4872649;29;21048;-73
2022/12/30 17:25:58;;;;;;;2.30;1.80;;;10.00;99.90;;;;;;4872783;29;20442;-74
2022/12/30 17:28:25;;;;;;;2.20;1.63;;;10.00;99.90;;;;;;4876121;29;20456;-73
2022/12/30 17:30:53;;;;;;;2.60;1.60;;;10.00;99.90;;;;;;4901359;29;20476;-74
2022/12/30 17:33:20;;;;;;;1.87;1.67;;;10.00;99.90;;;;;;4910123;29;20542;-73
2022/12/30 17:35:47;;;;;;;7.43;1.70;;;10.00;99.90;;;;;;4909470;29;20999;-73
2022/12/30 17:38:14;;;;;;;2.13;1.93;;;10.00;99.90;;;;;;4909521;29;20467;-73
2022/12/30 17:40:41;;;;;;;2.20;2.00;;;10.00;99.90;;;;;;4910063;29;20475;-74
2022/12/30 17:43:08;;;;;;;3.43;2.33;;;10.00;99.90;;;;;;4910350;29;20498;-73
2022/12/30 17:45:34;;;;;;;1.80;1.70;;;10.00;99.90;;;;;;4893799;29;20471;-73
2022/12/30 17:48:03;;;;;;;1.60;1.47;;;10.00;99.90;;;;;;4890444;29;20474;-74
2022/12/30 17:50:30;;;;;;;2.13;1.93;;;10.00;99.90;;;;;;4891060;29;20496;-74
2022/12/30 17:52:57;;;;;;;2.10;1.90;;;10.10;99.90;;;;;;4891439;29;20460;-73
2022/12/30 17:55:23;;;;;;;1.83;1.57;;;10.10;99.90;;;;;;4889371;29;20462;-73
2022/12/30 17:57:50;;;;;;;1.70;1.60;;;10.10;99.90;;;;;;4890270;29;20451;-74
2022/12/30 18:00:17;;;;;;;3.60;2.20;;;10.10;99.90;;;;;;4891267;29;20557;-74
2022/12/30 18:02:44;;;;;;;2.60;1.90;;;10.10;99.90;;;;;;4891138;29;20866;-73
2022/12/30 18:05:14;;;;;;;2.60;1.77;;;10.20;99.90;;;;;;4890666;29;20466;-74
2022/12/30 18:07:44;;;;;;;1.97;1.77;;;10.20;99.90;;;;;;4889695;29;20466;-74
2022/12/30 18:10:11;;;;;;;2.47;1.83;;;10.20;99.90;;;;;;4890346;29;20952;-74
2022/12/30 18:12:39;;;;;;;2.30;2.10;;;10.30;99.90;;;;;;4889788;29;20515;-74
2022/12/30 18:15:06;;;;;;;2.03;1.73;;;10.40;99.90;;;;;;4890572;29;20504;-74
2022/12/30 18:17:33;;;;;;;2.10;1.87;;;10.40;99.90;;;;;;4890152;29;20460;-74
2022/12/30 18:20:00;;;;;;;3.83;1.90;;;10.40;99.90;;;;;;4889863;29;20469;-74
2022/12/30 18:22:28;;;;;;;3.20;2.10;;;10.50;99.90;;;;;;4890229;29;20484;-74
2022/12/30 18:24:55;;;;;;;2.57;1.90;;;10.50;99.90;;;;;;4890729;29;21108;-74
2022/12/30 18:27:22;;;;;;;2.00;1.80;;;10.50;99.90;;;;;;4889377;29;20455;-73
2022/12/30 18:29:49;;;;;;;2.27;1.57;;;10.60;99.90;;;;;;4889722;29;21001;-73